createdAt,value
2023-05-18T00:00:15.048Z,52.10
2023-05-18T00:02:44.546Z,52.10
2023-05-18T00:05:13.226Z,52.20
2023-05-18T00:07:41.669Z,52.40
2023-05-18T00:10:12.800Z,52.50
2023-05-18T00:12:41.720Z,52.50
2023-05-18T00:15:11.573Z,53.10
2023-05-18T00:17:43.657Z,52.50
2023-05-18T00:20:12.745Z,52.50
2023-05-18T00:22:42.706Z,52.50
2023-05-18T00:25:12.554Z,52.60
2023-05-18T00:27:40.890Z,52.90
2023-05-18T00:30:10.128Z,52.70
2023-05-18T00:32:38.728Z,52.80
2023-05-18T00:35:08.066Z,53.10
2023-05-18T00:37:36.528Z,53.00
2023-05-18T00:40:06.638Z,53.30
2023-05-18T00:42:36.983Z,53.30
2023-05-18T00:45:06.449Z,53.50
2023-05-18T00:47:34.841Z,53.40
2023-05-18T00:50:03.254Z,53.40
2023-05-18T00:52:32.862Z,53.60
2023-05-18T00:55:01.650Z,53.80
2023-05-18T00:57:29.980Z,54.00
2023-05-18T01:00:00.207Z,53.80
2023-05-18T01:02:30.593Z,53.90
2023-05-18T01:05:02.961Z,53.90
2023-05-18T01:07:33.514Z,54.00
2023-05-18T01:10:04.353Z,54.10
2023-05-18T01:12:38.676Z,54.20
2023-05-18T01:15:14.485Z,54.10
2023-05-18T01:17:57.317Z,54.20
2023-05-18T01:20:37.841Z,54.30
2023-05-18T01:23:46.862Z,54.40
2023-05-18T01:26:18.177Z,54.40
2023-05-18T01:28:48.151Z,54.40
2023-05-18T01:31:17.221Z,54.40
2023-05-18T01:33:46.013Z,54.60
2023-05-18T01:36:14.489Z,54.80
2023-05-18T01:38:44.344Z,54.80
2023-05-18T01:41:21.410Z,55.50
2023-05-18T01:43:58.942Z,54.90
2023-05-18T01:46:45.396Z,54.90
2023-05-18T01:49:20.006Z,55.00
2023-05-18T01:51:49.807Z,55.00
2023-05-18T01:54:23.600Z,55.20
2023-05-18T01:56:57.908Z,55.20
2023-05-18T01:59:29.047Z,55.30
2023-05-18T02:02:01.167Z,55.30
2023-05-18T02:04:29.919Z,55.30
2023-05-18T02:07:00.307Z,55.50
2023-05-18T02:09:28.553Z,55.50
2023-05-18T02:11:58.334Z,55.60
2023-05-18T02:14:27.383Z,55.70
2023-05-18T02:16:58.908Z,55.90
2023-05-18T02:19:27.163Z,56.00
2023-05-18T02:21:56.185Z,56.20
2023-05-18T02:24:24.803Z,56.40
2023-05-18T02:26:53.256Z,56.30
2023-05-18T02:29:23.040Z,56.30
2023-05-18T02:31:53.768Z,56.40
2023-05-18T02:34:23.106Z,56.20
2023-05-18T02:36:51.991Z,56.30
2023-05-18T02:39:20.787Z,56.40
2023-05-18T02:41:49.165Z,56.40
2023-05-18T02:44:17.663Z,56.40
2023-05-18T02:46:47.402Z,57.20
2023-05-18T02:49:18.803Z,57.30
2023-05-18T02:51:47.265Z,57.40
2023-05-18T02:54:15.759Z,57.40
2023-05-18T02:56:46.426Z,57.30
2023-05-18T02:59:25.770Z,57.40
2023-05-18T03:01:55.886Z,57.70
2023-05-18T03:04:26.320Z,57.30
2023-05-18T03:06:58.551Z,57.60
2023-05-18T03:09:27.516Z,57.60
2023-05-18T03:12:00.222Z,57.80
2023-05-18T03:14:28.864Z,57.70
2023-05-18T03:16:59.402Z,57.80
2023-05-18T03:19:28.504Z,57.90
2023-05-18T03:21:57.956Z,58.00
2023-05-18T03:24:30.509Z,58.00
2023-05-18T03:27:01.167Z,58.10
2023-05-18T03:29:31.658Z,58.10
2023-05-18T03:32:04.781Z,58.10
2023-05-18T03:34:33.235Z,58.00
2023-05-18T03:37:03.239Z,57.90
2023-05-18T03:39:33.567Z,58.00
2023-05-18T03:42:02.110Z,58.10
2023-05-18T03:44:30.871Z,58.10
2023-05-18T03:46:59.480Z,58.10
2023-05-18T03:49:29.905Z,58.20
2023-05-18T03:51:58.758Z,58.40
2023-05-18T03:54:30.144Z,58.50
2023-05-18T03:56:58.520Z,58.60
2023-05-18T03:59:26.890Z,58.40
2023-05-18T04:01:55.555Z,58.50
2023-05-18T04:04:27.504Z,58.60
2023-05-18T04:06:57.427Z,58.60
2023-05-18T04:09:25.657Z,58.80
2023-05-18T04:11:54.052Z,58.70
2023-05-18T04:14:25.021Z,58.90
2023-05-18T04:16:53.942Z,58.80
2023-05-18T04:19:23.115Z,58.80
2023-05-18T04:21:52.573Z,58.80
2023-05-18T04:24:27.017Z,59.30
2023-05-18T04:26:56.206Z,59.40
2023-05-18T04:29:24.684Z,58.80
2023-05-18T04:31:53.880Z,58.90
2023-05-18T04:34:35.902Z,58.90
2023-05-18T04:37:09.929Z,59.00
2023-05-18T04:39:42.373Z,58.80
2023-05-18T04:42:18.157Z,59.00
2023-05-18T04:44:52.259Z,58.90
2023-05-18T04:47:24.074Z,59.10
2023-05-18T04:49:56.178Z,59.00
2023-05-18T04:52:32.394Z,59.30
2023-05-18T04:55:02.589Z,58.20
2023-05-18T04:57:31.627Z,58.10
2023-05-18T05:00:00.028Z,58.10
2023-05-18T05:02:28.342Z,58.20
2023-05-18T05:04:56.683Z,58.50
2023-05-18T05:07:24.934Z,58.20
2023-05-18T05:09:53.274Z,58.20
2023-05-18T05:12:23.099Z,58.30
2023-05-18T05:14:54.064Z,58.40
2023-05-18T05:17:25.525Z,58.40
2023-05-18T05:19:54.173Z,58.30
2023-05-18T05:22:22.713Z,58.60
2023-05-18T05:24:52.113Z,58.60
2023-05-18T05:27:23.656Z,58.60
2023-05-18T05:29:52.453Z,58.50
2023-05-18T05:32:20.841Z,58.30
2023-05-18T05:34:51.897Z,58.40
2023-05-18T05:37:23.162Z,58.30
2023-05-18T05:39:52.159Z,58.30
2023-05-18T05:42:22.501Z,58.40
2023-05-18T05:44:50.836Z,58.30
2023-05-18T05:47:19.128Z,58.40
2023-05-18T05:49:47.680Z,58.40
2023-05-18T05:52:16.080Z,58.40
2023-05-18T05:54:44.659Z,58.90
2023-05-18T05:57:14.619Z,58.30
2023-05-18T05:59:44.758Z,58.30
2023-05-18T06:02:13.697Z,58.40
2023-05-18T06:04:42.098Z,58.20
2023-05-18T06:07:11.116Z,58.30
2023-05-18T06:09:39.267Z,58.20
2023-05-18T06:12:08.451Z,57.90
2023-05-18T06:14:36.744Z,57.70
2023-05-18T06:17:08.448Z,57.80
2023-05-18T06:19:36.699Z,57.70
2023-05-18T06:22:05.652Z,57.60
2023-05-18T06:24:42.659Z,57.10
2023-05-18T06:27:26.471Z,57.30
2023-05-18T06:30:19.228Z,57.30
2023-05-18T06:33:12.566Z,57.00
2023-05-18T06:35:46.836Z,56.90
2023-05-18T06:38:16.797Z,56.80
2023-05-18T06:40:45.559Z,56.60
2023-05-18T06:43:14.042Z,56.50
2023-05-18T06:45:54.087Z,56.40
2023-05-18T06:48:47.227Z,56.10
2023-05-18T06:51:16.760Z,55.70
2023-05-18T06:53:47.397Z,55.60
2023-05-18T06:56:19.496Z,55.30
2023-05-18T07:09:43.867Z,54.70
2023-05-18T07:13:04.953Z,54.70
2023-05-18T07:16:21.430Z,54.20
2023-05-18T07:19:29.778Z,54.00
2023-05-18T07:25:07.617Z,53.70
2023-05-18T07:27:39.500Z,53.50
2023-05-18T07:30:45.395Z,53.70
2023-05-18T07:33:16.247Z,53.60
2023-05-18T07:36:09.293Z,53.90
2023-05-18T07:39:06.793Z,53.70
2023-05-18T07:41:41.660Z,53.40
2023-05-18T07:44:12.547Z,53.30
2023-05-18T07:46:40.856Z,53.20
2023-05-18T07:49:09.330Z,53.30
2023-05-18T07:51:39.495Z,53.20
2023-05-18T07:54:09.298Z,52.90
2023-05-18T07:56:39.815Z,52.70
2023-05-18T07:59:09.024Z,52.50
2023-05-18T08:01:38.548Z,52.20
2023-05-18T08:04:07.438Z,52.20
2023-05-18T08:06:39.472Z,51.80
2023-05-18T08:09:08.450Z,51.60
2023-05-18T08:11:39.736Z,51.50
2023-05-18T08:14:08.293Z,51.30
2023-05-18T08:16:38.075Z,51.40
2023-05-18T08:19:06.829Z,51.20
2023-05-18T08:21:38.574Z,50.80
2023-05-18T08:24:09.021Z,50.60
2023-05-18T08:26:37.669Z,50.50
2023-05-18T08:29:11.551Z,50.40
2023-05-18T08:31:45.360Z,50.30
2023-05-18T08:34:16.024Z,50.30
2023-05-18T08:36:49.813Z,50.30
2023-05-18T08:53:57.715Z,49.30
2023-05-18T08:56:36.178Z,49.90
2023-05-18T09:02:24.884Z,49.40
2023-05-18T09:30:48.177Z,47.70
2023-05-18T09:36:43.220Z,47.50
2023-05-18T09:41:49.232Z,46.80
2023-05-18T09:45:02.739Z,47.40
2023-05-18T09:54:41.727Z,46.40
2023-05-18T10:01:50.195Z,45.70
2023-05-18T10:09:36.623Z,45.80
2023-05-18T10:12:12.927Z,45.60
2023-05-18T10:15:06.486Z,45.40
2023-05-18T10:17:47.064Z,45.20
2023-05-18T10:20:19.221Z,44.90
2023-05-18T10:48:01.353Z,43.80
2023-05-18T11:07:49.901Z,43.30
2023-05-18T11:10:18.730Z,43.60
2023-05-18T11:12:47.800Z,43.60
2023-05-18T11:15:19.079Z,43.40
2023-05-18T11:17:50.070Z,43.20
2023-05-18T11:20:19.897Z,43.40
2023-05-18T11:23:03.901Z,42.90
2023-05-18T11:25:39.078Z,42.20
2023-05-18T11:28:09.978Z,42.10
2023-05-18T11:31:00.139Z,42.10
2023-05-18T11:33:31.111Z,41.60
2023-05-18T11:36:07.737Z,41.80
2023-05-18T11:38:56.434Z,41.40
2023-05-18T11:41:31.644Z,40.70
2023-05-18T11:44:17.367Z,40.90
2023-05-18T11:46:57.995Z,40.90
2023-05-18T11:49:28.220Z,40.90
2023-05-18T11:52:10.416Z,41.00
2023-05-18T11:54:47.133Z,40.50
2023-05-18T11:57:18.487Z,40.10
2023-05-18T11:59:48.741Z,40.50
2023-05-18T12:02:23.819Z,40.70
2023-05-18T12:04:54.689Z,40.50
2023-05-18T12:07:42.379Z,40.60
2023-05-18T12:10:30.362Z,40.40
2023-05-18T12:13:05.522Z,40.10
2023-05-18T12:15:35.533Z,40.60
2023-05-18T12:18:05.047Z,40.40
2023-05-18T12:20:38.644Z,40.10
2023-05-18T12:23:07.773Z,39.90
2023-05-18T12:25:41.651Z,39.60
2023-05-18T12:28:10.707Z,38.70
2023-05-18T12:31:40.572Z,38.70
2023-05-18T12:34:12.305Z,38.60
2023-05-18T12:36:55.362Z,39.00
2023-05-18T12:39:25.105Z,39.00
2023-05-18T12:42:09.277Z,39.20
2023-05-18T12:44:45.456Z,39.10
2023-05-18T12:47:25.531Z,39.40
2023-05-18T12:49:54.940Z,39.60
2023-05-18T12:52:23.726Z,39.60
2023-05-18T12:54:59.869Z,39.20
2023-05-18T12:57:31.359Z,38.20
2023-05-18T13:00:00.305Z,38.20
2023-05-18T13:10:22.177Z,38.20
2023-05-18T13:12:54.034Z,37.70
2023-05-18T13:15:24.561Z,36.90
2023-05-18T13:18:00.575Z,35.90
2023-05-18T13:20:37.988Z,35.10
2023-05-18T13:23:08.530Z,35.40
2023-05-18T13:25:36.960Z,35.70
2023-05-18T13:28:07.832Z,35.30
2023-05-18T13:30:36.249Z,34.60
2023-05-18T13:33:05.038Z,34.60
2023-05-18T13:35:33.566Z,34.20
2023-05-18T13:38:01.937Z,34.50
2023-05-18T13:40:30.962Z,33.90
2023-05-18T13:43:02.259Z,33.40
2023-05-18T13:45:32.228Z,32.80
2023-05-18T13:48:01.171Z,33.10
2023-05-18T13:50:31.409Z,33.60
2023-05-18T13:53:02.690Z,33.30
2023-05-18T13:55:34.921Z,33.30
2023-05-18T13:58:03.440Z,34.00
2023-05-18T14:00:50.295Z,34.00
2023-05-18T14:03:20.182Z,33.70
2023-05-18T14:05:48.743Z,34.40
2023-05-18T14:08:17.432Z,34.60
2023-05-18T14:10:54.953Z,34.60
2023-05-18T14:13:23.713Z,34.30
2023-05-18T14:15:54.013Z,34.90
2023-05-18T14:18:22.279Z,35.20
2023-05-18T14:20:53.535Z,35.50
2023-05-18T14:23:21.985Z,35.50
2023-05-18T14:25:52.852Z,36.00
2023-05-18T14:28:21.281Z,35.80
2023-05-18T14:30:55.019Z,35.30
2023-05-18T14:33:27.047Z,34.90
2023-05-18T14:35:57.959Z,34.60
2023-05-18T14:38:27.062Z,34.40
2023-05-18T14:40:55.682Z,34.20
2023-05-18T14:43:23.953Z,34.30
2023-05-18T14:46:06.918Z,35.40
2023-05-18T14:48:37.795Z,34.90
2023-05-18T14:51:06.372Z,35.00
2023-05-18T14:53:34.743Z,35.60
2023-05-18T14:56:06.160Z,36.30
2023-05-18T14:58:34.757Z,36.20
2023-05-18T15:01:03.861Z,36.20
2023-05-18T15:03:32.728Z,36.20
2023-05-18T15:06:03.917Z,35.80
2023-05-18T15:08:32.459Z,34.70
2023-05-18T15:11:01.224Z,34.30
2023-05-18T16:03:47.114Z,37.10
2023-05-18T16:06:22.002Z,37.80
2023-05-18T16:08:50.916Z,38.60
2023-05-18T16:11:19.421Z,38.50
2023-05-18T16:13:50.292Z,38.00
2023-05-18T16:16:19.245Z,37.60
2023-05-18T16:18:49.919Z,37.60
2023-05-18T16:21:37.444Z,37.50
2023-05-18T16:24:14.820Z,37.70
2023-05-18T16:26:47.626Z,38.00
2023-05-18T16:29:28.443Z,38.50
2023-05-18T16:31:56.774Z,38.50
2023-05-18T16:34:41.897Z,38.20
2023-05-18T16:37:13.153Z,38.40
2023-05-18T16:39:55.610Z,37.80
2023-05-18T16:45:10.675Z,37.90
2023-05-18T16:47:39.826Z,37.60
2023-05-18T16:50:17.340Z,37.60
2023-05-18T16:52:50.051Z,36.50
2023-05-18T16:55:20.172Z,36.10
2023-05-18T16:57:58.004Z,35.80
2023-05-18T17:00:36.076Z,35.80
2023-05-18T17:03:35.518Z,36.00
2023-05-18T17:06:18.225Z,35.60
2023-05-18T17:09:08.160Z,35.70
2023-05-18T17:11:40.017Z,35.80
2023-05-18T17:14:25.491Z,35.90
2023-05-18T17:16:55.289Z,36.10
2023-05-18T17:19:26.662Z,36.40
2023-05-18T17:22:06.014Z,36.70
2023-05-18T17:24:38.059Z,37.00
2023-05-18T17:27:07.537Z,37.20
2023-05-18T17:29:44.131Z,37.30
2023-05-18T17:32:12.574Z,37.50
2023-05-18T17:34:54.951Z,37.60
2023-05-18T17:37:40.503Z,37.80
2023-05-18T17:40:16.542Z,38.00
2023-05-18T17:42:49.868Z,37.90
2023-05-18T17:45:28.379Z,38.50
2023-05-18T17:48:10.203Z,38.60
2023-05-18T17:50:39.141Z,38.90
2023-05-18T17:53:18.804Z,38.90
2023-05-18T17:55:59.758Z,39.10
2023-05-18T17:58:44.542Z,39.30
2023-05-18T18:01:25.668Z,39.80
2023-05-18T18:03:54.303Z,39.60
2023-05-18T18:06:26.733Z,39.70
2023-05-18T18:08:58.866Z,39.50
2023-05-18T18:11:27.961Z,39.80
2023-05-18T18:14:14.919Z,40.10
2023-05-18T18:16:45.409Z,40.20
2023-05-18T18:19:18.086Z,40.50
2023-05-18T18:21:46.474Z,40.80
2023-05-18T18:24:18.393Z,40.80
2023-05-18T18:27:00.478Z,41.00
2023-05-18T18:29:35.771Z,41.10
2023-05-18T18:32:15.959Z,41.60
2023-05-18T18:34:44.583Z,42.10
2023-05-18T18:37:16.296Z,42.60
2023-05-18T18:39:46.418Z,43.10
2023-05-18T18:42:24.510Z,43.60
2023-05-18T18:45:01.599Z,44.10
2023-05-18T18:47:30.720Z,44.00
2023-05-18T18:50:05.652Z,44.00
2023-05-18T18:52:39.746Z,44.00
2023-05-18T18:55:14.145Z,44.10
2023-05-18T18:57:43.017Z,44.50
2023-05-18T19:00:18.327Z,44.40
2023-05-18T19:02:49.699Z,44.70
2023-05-18T19:05:35.445Z,44.70
2023-05-18T19:08:08.843Z,44.80
2023-05-18T19:10:46.610Z,44.80
2023-05-18T19:13:15.114Z,44.60
2023-05-18T19:15:48.026Z,44.90
2023-05-18T19:18:16.648Z,45.00
2023-05-18T19:20:51.717Z,45.50
2023-05-18T19:23:20.391Z,45.30
2023-05-18T19:25:55.034Z,45.60
2023-05-18T19:28:25.747Z,45.90
2023-05-18T19:30:57.389Z,46.00
2023-05-18T19:33:26.485Z,45.80
2023-05-18T19:35:55.943Z,45.90
2023-05-18T19:38:43.657Z,46.10
2023-05-18T19:41:18.459Z,46.10
2023-05-18T19:43:50.768Z,46.00
2023-05-18T19:46:20.987Z,46.20
2023-05-18T19:48:49.843Z,47.30
2023-05-18T19:51:20.709Z,46.70
2023-05-18T19:53:58.585Z,46.50
2023-05-18T19:56:31.516Z,46.50
2023-05-18T19:59:01.629Z,46.70
2023-05-18T20:01:44.259Z,46.60
2023-05-18T20:04:13.362Z,46.70
2023-05-18T20:06:42.305Z,46.80
2023-05-18T20:09:16.586Z,46.70
2023-05-18T20:11:57.635Z,46.90
2023-05-18T20:14:45.079Z,47.00
2023-05-18T20:17:14.259Z,46.90
2023-05-18T20:19:51.304Z,47.20
2023-05-18T20:22:40.501Z,47.20
2023-05-18T20:25:14.668Z,47.40
2023-05-18T20:27:45.411Z,47.30
2023-05-18T20:30:17.163Z,47.40
2023-05-18T20:32:45.697Z,47.50
2023-05-18T20:35:16.033Z,47.70
2023-05-18T20:37:45.591Z,47.80
2023-05-18T20:40:28.468Z,47.90
2023-05-18T20:42:59.042Z,48.10
2023-05-18T20:45:29.927Z,48.80
2023-05-18T20:48:00.071Z,48.10
2023-05-18T20:50:31.811Z,48.30
2023-05-18T20:53:01.031Z,48.70
2023-05-18T20:55:32.721Z,48.50
2023-05-18T20:58:11.043Z,48.80
2023-05-18T21:00:40.449Z,48.90
2023-05-18T21:03:09.522Z,48.90
2023-05-18T21:05:39.042Z,49.10
2023-05-18T21:08:10.482Z,49.30
2023-05-18T21:10:39.735Z,49.40
2023-05-18T21:13:47.692Z,49.40
2023-05-18T21:16:30.647Z,49.30
2023-05-18T21:22:52.480Z,49.30
2023-05-18T21:25:21.150Z,49.10
2023-05-18T21:27:50.221Z,49.40
2023-05-18T21:31:05.725Z,49.80
2023-05-18T21:33:48.269Z,49.60
2023-05-18T21:36:42.246Z,50.00
2023-05-18T21:39:11.159Z,49.80
2023-05-18T21:41:40.514Z,49.70
2023-05-18T21:44:09.105Z,50.00
2023-05-18T21:46:38.442Z,50.00
2023-05-18T21:49:17.871Z,49.90
2023-05-18T21:51:46.317Z,50.30
2023-05-18T21:54:14.582Z,50.30
2023-05-18T22:43:02.104Z,50.70
2023-05-18T22:45:31.079Z,50.80
2023-05-18T22:48:00.115Z,50.70
2023-05-18T22:53:14.454Z,50.90
2023-05-18T22:55:43.334Z,50.90
2023-05-18T22:58:13.344Z,50.90
2023-05-18T23:00:41.560Z,51.20
2023-05-18T23:03:10.499Z,51.00
2023-05-18T23:05:41.362Z,51.30
2023-05-18T23:08:10.316Z,51.30
2023-05-18T23:10:38.673Z,51.50
2023-05-18T23:13:06.974Z,51.60
2023-05-18T23:15:41.555Z,51.60
2023-05-18T23:18:10.228Z,51.60
2023-05-18T23:20:38.819Z,51.90
2023-05-18T23:23:07.291Z,51.90
2023-05-18T23:25:35.808Z,52.10
2023-05-18T23:28:04.198Z,52.10
2023-05-18T23:30:33.352Z,52.10
2023-05-18T23:33:08.936Z,52.10
2023-05-18T23:35:40.523Z,52.20
2023-05-18T23:38:37.898Z,52.20
2023-05-18T23:47:05.778Z,52.20
2023-05-18T23:49:36.397Z,52.30
2023-05-18T23:52:05.908Z,52.50
2023-05-18T23:54:34.697Z,52.60
2023-05-18T23:57:03.788Z,52.60
2023-05-18T23:59:33.163Z,52.90
